Terminal Aerodrome Forecast
Issued by NWS Newport/Morehead City, NC

Home | Current Version | Previous Version | Graphics & Text | Print | Product List | Glossary On
Versions: 1 2 3 4 5 6 7 8 9 10 11 12 13 14 15 16 17
770
FTUS42 KMHX 252323
TAFEWN
TAF
KEWN 252323Z 2600/2624 20006KT P6SM SCT050
     FM260800 19003KT 4SM BR BKN007
     FM261300 20006KT P6SM BKN020
     FM261500 20010G18KT P6SM BKN050=

USA.gov is the U.S. government's official web portal to all federal, state and local government web resources and services.